Time;durP1;ratioP1;P1;durP2;ratioP2;P2;SDS_P1;SDS_P2;PMS_P1;PMS_P2;Temp;Humidity;BMP_temperature;BMP_pressure;BME280_temperature;BME280_humidity;BME280_pressure;Samples;Min_cycle;Max_cycle;Signal;HPM_P1;HPM_P2
2023/05/27 00:02:15;;;;;;;;;;;15.00;74.80;;;;;;5067888;28;19914;-64
2023/05/27 00:04:40;;;;;;;;;;;15.00;74.80;;;;;;4987515;28;19910;-64
2023/05/27 00:07:06;;;;;;;;;;;15.00;75.00;;;;;;4987209;28;19925;-65
2023/05/27 00:09:31;;;;;;;;;;;14.90;74.90;;;;;;4987735;28;19917;-64
2023/05/27 00:11:57;;;;;;;;;;;14.90;75.00;;;;;;4987542;28;19914;-64
2023/05/27 00:14:23;;;;;;;;;;;14.90;75.00;;;;;;4987718;28;19914;-64
2023/05/27 00:16:49;;;;;;;;;;;14.80;75.00;;;;;;4987675;28;19914;-64
2023/05/27 00:19:16;;;;;;;;;;;14.80;75.10;;;;;;4987324;28;19920;-64
2023/05/27 00:21:42;;;;;;;;;;;14.80;75.30;;;;;;4987574;28;20524;-64
2023/05/27 00:24:08;;;;;;;;;;;14.80;75.10;;;;;;4979709;28;19922;-64
2023/05/27 00:26:33;;;;;;;;;;;14.70;75.10;;;;;;4985908;28;19914;-64
2023/05/27 00:28:59;;;;;;;;;;;14.70;75.00;;;;;;4987376;28;19921;-64
2023/05/27 00:31:25;;;;;;;;;;;14.70;75.10;;;;;;4987533;28;20019;-64
2023/05/27 00:33:50;;;;;;;;;;;14.60;75.10;;;;;;4987059;28;19914;-64
2023/05/27 00:36:17;;;;;;;;;;;14.60;75.30;;;;;;5026326;28;20000;-64
2023/05/27 00:38:42;;;;;;;;;;;14.60;75.20;;;;;;5048212;28;19943;-64
2023/05/27 00:41:10;;;;;;;;;;;14.60;75.40;;;;;;5089951;28;20386;-64
2023/05/27 00:43:35;;;;;;;;;;;14.60;75.40;;;;;;5089633;28;19999;-64
2023/05/27 00:46:01;;;;;;;;;;;14.50;75.40;;;;;;5089757;28;20006;-64
2023/05/27 00:48:26;;;;;;;;;;;14.50;75.60;;;;;;5088326;28;19916;-64
2023/05/27 00:50:52;;;;;;;;;;;14.40;75.50;;;;;;5088445;28;20347;-64
2023/05/27 00:53:19;;;;;;;;;;;14.40;75.60;;;;;;5089114;28;19912;-64
2023/05/27 00:55:45;;;;;;;;;;;14.40;75.50;;;;;;5038897;28;19940;-64
2023/05/27 00:58:11;;;;;;;;;;;14.40;75.40;;;;;;4985777;28;19918;-64
2023/05/27 01:00:39;;;;;;;;;;;14.40;75.50;;;;;;4987274;28;19914;-64
2023/05/27 01:03:06;;;;;;;;;;;14.30;75.50;;;;;;4986803;28;20463;-64
2023/05/27 01:05:32;;;;;;;;;;;14.30;76.00;;;;;;4987250;28;19916;-64
2023/05/27 01:08:12;;;;;;;;;;;14.30;75.90;;;;;;4985809;28;19913;-64
2023/05/27 01:10:49;;;;;;;;;;;14.20;75.80;;;;;;4987083;28;19914;-66
2023/05/27 01:13:24;;;;;;;;;;;14.20;75.90;;;;;;4986804;28;19914;-66
2023/05/27 01:15:52;;;;;;;;;;;14.20;75.80;;;;;;4985761;28;19913;-66
2023/05/27 01:18:19;;;;;;;;;;;14.20;76.10;;;;;;4987051;28;19938;-66
2023/05/27 01:20:47;;;;;;;;;;;14.10;75.90;;;;;;5089117;28;20468;-66
2023/05/27 01:23:13;;;;;;;;;;;14.10;75.80;;;;;;5088612;28;19924;-66
2023/05/27 01:25:38;;;;;;;;;;;14.10;76.00;;;;;;4992439;28;19914;-66
2023/05/27 01:28:04;;;;;;;;;;;14.10;76.20;;;;;;4986563;28;19913;-66
2023/05/27 01:30:30;;;;;;;;;;;14.00;76.10;;;;;;4985331;28;19917;-66
2023/05/27 01:33:07;;;;;;;;;;;14.00;76.50;;;;;;4986429;28;19909;-67
2023/05/27 01:35:38;;;;;;;;;;;14.00;76.20;;;;;;4987088;28;19922;-66
2023/05/27 01:38:05;;;;;;;;;;;13.90;76.00;;;;;;4986729;28;19910;-66
2023/05/27 01:40:33;;;;;;;;;;;13.90;76.10;;;;;;4985394;28;19968;-66
2023/05/27 01:42:59;;;;;;;;;;;13.90;76.30;;;;;;4986572;28;20306;-66
2023/05/27 01:45:25;;;;;;;;;;;13.90;76.20;;;;;;4985336;28;19984;-66
2023/05/27 01:47:51;;;;;;;;;;;13.90;76.30;;;;;;4986712;28;19914;-66
2023/05/27 01:50:17;;;;;;;;;;;13.80;76.20;;;;;;4986624;28;19914;-66
2023/05/27 01:52:42;;;;;;;;;;;13.80;76.40;;;;;;5036429;28;19977;-66
2023/05/27 01:55:08;;;;;;;;;;;13.80;76.40;;;;;;5064213;28;19913;-66
2023/05/27 01:57:33;;;;;;;;;;;13.70;76.30;;;;;;4985326;28;19953;-66
2023/05/27 01:59:59;;;;;;;;;;;13.70;76.40;;;;;;4984861;28;19914;-66
2023/05/27 02:02:25;;;;;;;;;;;13.70;76.50;;;;;;4986111;28;19922;-66
2023/05/27 02:04:50;;;;;;;;;;;13.70;76.70;;;;;;4984766;28;20267;-66
2023/05/27 02:07:16;;;;;;;;;;;13.70;76.60;;;;;;4988509;28;19925;-66
2023/05/27 02:09:43;;;;;;;;;;;13.70;76.60;;;;;;4988480;28;20651;-66
2023/05/27 02:12:08;;;;;;;;;;;13.60;76.60;;;;;;4988278;28;19983;-66
2023/05/27 02:14:38;;;;;;;;;;;13.60;76.70;;;;;;4989700;28;19914;-66
2023/05/27 02:17:04;;;;;;;;;;;13.60;76.70;;;;;;4989705;28;20369;-66
2023/05/27 02:19:29;;;;;;;;;;;13.60;77.00;;;;;;4989661;28;19920;-66
2023/05/27 02:21:55;;;;;;;;;;;13.60;77.50;;;;;;4989591;28;19918;-66
2023/05/27 02:24:20;;;;;;;;;;;13.60;77.40;;;;;;4989397;28;19914;-66
2023/05/27 02:26:46;;;;;;;;;;;13.50;77.20;;;;;;4989080;28;19918;-66
2023/05/27 02:29:11;;;;;;;;;;;13.50;77.30;;;;;;4989526;28;19910;-66
2023/05/27 02:31:37;;;;;;;;;;;13.50;77.40;;;;;;4989458;28;19940;-66
2023/05/27 02:34:02;;;;;;;;;;;13.50;77.60;;;;;;4988950;28;19918;-66
2023/05/27 02:36:28;;;;;;;;;;;13.50;77.80;;;;;;4989432;28;19971;-66
2023/05/27 02:38:53;;;;;;;;;;;13.40;77.70;;;;;;4989312;28;20401;-66
2023/05/27 02:41:18;;;;;;;;;;;13.40;77.60;;;;;;4989424;28;19914;-66
2023/05/27 02:43:44;;;;;;;;;;;13.40;77.60;;;;;;4989118;28;19983;-66
2023/05/27 02:46:10;;;;;;;;;;;13.40;77.70;;;;;;4988261;28;19986;-66
2023/05/27 02:48:35;;;;;;;;;;;13.30;77.80;;;;;;4989355;28;20278;-66
2023/05/27 02:51:01;;;;;;;;;;;13.30;77.90;;;;;;4989470;28;19931;-66
2023/05/27 02:53:26;;;;;;;;;;;13.30;77.80;;;;;;4989198;28;20020;-66
2023/05/27 02:55:52;;;;;;;;;;;13.30;77.80;;;;;;4989297;28;20083;-66
2023/05/27 02:58:18;;;;;;;;;;;13.30;77.80;;;;;;4988971;28;19990;-66
2023/05/27 03:00:43;;;;;;;;;;;13.20;77.80;;;;;;4989082;28;20021;-66
2023/05/27 03:03:09;;;;;;;;;;;13.20;77.90;;;;;;4987308;28;19913;-66
2023/05/27 03:05:35;;;;;;;;;;;13.20;78.00;;;;;;4988962;28;20382;-66
2023/05/27 03:08:00;;;;;;;;;;;13.20;78.00;;;;;;4987727;28;19913;-66
2023/05/27 03:10:26;;;;;;;;;;;13.20;77.90;;;;;;4989087;28;19945;-66
2023/05/27 03:12:53;;;;;;;;;;;13.20;77.80;;;;;;4988899;28;19921;-66
2023/05/27 03:15:19;;;;;;;;;;;13.10;78.00;;;;;;4988951;28;19914;-66
2023/05/27 03:17:45;;;;;;;;;;;13.10;78.00;;;;;;4988839;28;19921;-66
2023/05/27 03:20:10;;;;;;;;;;;13.10;77.90;;;;;;4988694;28;19967;-66
2023/05/27 03:22:36;;;;;;;;;;;13.10;78.10;;;;;;4988395;28;19922;-66
2023/05/27 03:25:02;;;;;;;;;;;13.10;78.20;;;;;;4988438;28;19931;-66
2023/05/27 03:27:27;;;;;;;;;;;13.00;78.10;;;;;;4987013;28;19917;-66
2023/05/27 03:29:53;;;;;;;;;;;13.10;78.20;;;;;;4987296;28;19914;-66
2023/05/27 03:32:18;;;;;;;;;;;13.00;78.10;;;;;;4988305;28;19945;-66
2023/05/27 03:34:44;;;;;;;;;;;13.00;78.10;;;;;;4988505;28;20616;-66
2023/05/27 03:37:09;;;;;;;;;;;13.00;78.20;;;;;;4987242;28;19939;-66
2023/05/27 03:39:35;;;;;;;;;;;13.00;78.20;;;;;;4988673;28;20266;-66
2023/05/27 03:42:00;;;;;;;;;;;13.00;78.20;;;;;;4987210;28;20355;-66
2023/05/27 03:44:26;;;;;;;;;;;12.90;78.10;;;;;;4988513;28;19918;-66
2023/05/27 03:46:51;;;;;;;;;;;13.00;78.20;;;;;;5067892;28;19920;-66
2023/05/27 03:49:17;;;;;;;;;;;13.00;78.40;;;;;;5090818;28;20319;-66
2023/05/27 03:51:42;;;;;;;;;;;12.90;78.20;;;;;;5091059;28;19918;-67
2023/05/27 03:54:08;;;;;;;;;;;12.90;78.30;;;;;;5090932;28;19908;-66
2023/05/27 03:56:33;;;;;;;;;;;12.90;78.40;;;;;;5005478;28;19910;-66
2023/05/27 03:58:59;;;;;;;;;;;12.90;78.30;;;;;;4988254;28;20391;-66
2023/05/27 04:01:27;;;;;;;;;;;12.90;78.40;;;;;;4987085;28;19914;-66
2023/05/27 04:03:52;;;;;;;;;;;12.90;78.50;;;;;;4987821;28;20356;-66
2023/05/27 04:06:18;;;;;;;;;;;12.80;78.40;;;;;;4986758;28;19918;-66
2023/05/27 04:08:43;;;;;;;;;;;12.90;78.50;;;;;;4988197;28;20004;-66
2023/05/27 04:11:10;;;;;;;;;;;12.80;78.40;;;;;;4987780;28;20472;-66
2023/05/27 04:13:36;;;;;;;;;;;12.90;78.50;;;;;;4987595;28;19910;-66
2023/05/27 04:16:01;;;;;;;;;;;12.90;78.60;;;;;;4988197;28;19948;-66
2023/05/27 04:18:27;;;;;;;;;;;12.80;78.50;;;;;;4986383;28;19920;-67
2023/05/27 04:20:52;;;;;;;;;;;12.80;78.60;;;;;;4986607;28;19921;-66
2023/05/27 04:23:18;;;;;;;;;;;12.80;78.60;;;;;;4987649;28;19974;-67
2023/05/27 04:25:43;;;;;;;;;;;12.80;78.60;;;;;;4987003;28;20443;-66
2023/05/27 04:28:09;;;;;;;;;;;12.80;78.60;;;;;;4986862;28;19914;-66
2023/05/27 04:30:35;;;;;;;;;;;12.80;78.70;;;;;;4991727;28;19914;-66
2023/05/27 04:33:01;;;;;;;;;;;12.70;78.60;;;;;;5040061;28;19995;-66
2023/05/27 04:35:27;;;;;;;;;;;12.80;78.70;;;;;;4987673;28;19957;-66
2023/05/27 04:37:52;;;;;;;;;;;12.70;78.60;;;;;;4987841;28;19942;-66
2023/05/27 04:40:19;;;;;;;;;;;12.70;78.60;;;;;;4987617;28;20347;-66
2023/05/27 04:42:44;;;;;;;;;;;12.70;78.60;;;;;;4987492;28;19971;-66
2023/05/27 04:45:12;;;;;;;;;;;12.70;78.70;;;;;;4987741;28;20372;-66
2023/05/27 04:47:40;;;;;;;;;;;12.70;78.60;;;;;;4979362;28;20400;-66
2023/05/27 04:50:10;;;;;;;;;;;12.70;78.60;;;;;;5007316;28;19916;-66
2023/05/27 04:52:38;;;;;;;;;;;12.70;78.70;;;;;;4992466;28;20401;-66
2023/05/27 04:55:05;;;;;;;;;;;12.70;78.80;;;;;;4987340;28;20386;-66
2023/05/27 04:57:30;;;;;;;;;;;12.70;78.80;;;;;;4987385;28;19914;-66
2023/05/27 05:00:18;;;;;;;;;;;12.70;78.80;;;;;;4986992;28;20423;-66
2023/05/27 05:02:47;;;;;;;;;;;12.70;78.80;;;;;;4986890;28;20508;-66
2023/05/27 05:05:13;;;;;;;;;;;12.70;78.70;;;;;;4986301;28;19921;-66
2023/05/27 05:07:39;;;;;;;;;;;12.60;78.60;;;;;;4978212;28;20260;-67
2023/05/27 05:10:06;;;;;;;;;;;12.60;78.60;;;;;;4967555;28;19914;-67
2023/05/27 05:12:31;;;;;;;;;;;12.60;78.60;;;;;;4967459;28;19949;-67
2023/05/27 05:14:57;;;;;;;;;;;12.60;78.70;;;;;;4967445;28;20449;-66
2023/05/27 05:17:24;;;;;;;;;;;12.60;78.70;;;;;;4966137;28;20012;-66
2023/05/27 05:19:49;;;;;;;;;;;12.60;78.80;;;;;;4967361;28;20413;-66
2023/05/27 05:22:18;;;;;;;;;;;12.60;78.70;;;;;;4966969;28;19918;-66
2023/05/27 05:24:46;;;;;;;;;;;12.60;78.80;;;;;;4982800;28;19908;-66
2023/05/27 05:27:12;;;;;;;;;;;12.50;78.70;;;;;;5028933;28;20635;-66
2023/05/27 05:29:38;;;;;;;;;;;12.60;78.80;;;;;;4986503;28;19949;-66
2023/05/27 05:32:03;;;;;;;;;;;12.60;78.80;;;;;;4986531;28;19914;-66
2023/05/27 05:34:29;;;;;;;;;;;12.60;78.90;;;;;;4986654;28;19914;-66
2023/05/27 05:36:54;;;;;;;;;;;12.60;78.80;;;;;;4986713;28;19920;-66
2023/05/27 05:39:20;;;;;;;;;;;12.60;78.80;;;;;;4983880;28;19944;-67
2023/05/27 05:41:46;;;;;;;;;;;12.60;78.80;;;;;;4985516;28;19910;-67
2023/05/27 05:44:11;;;;;;;;;;;12.60;78.90;;;;;;4985842;28;19916;-66
2023/05/27 05:46:37;;;;;;;;;;;12.60;79.00;;;;;;4986046;28;19922;-66
2023/05/27 05:49:02;;;;;;;;;;;12.60;79.60;;;;;;4985876;28;19918;-67
2023/05/27 05:51:28;;;;;;;;;;;12.60;79.00;;;;;;5002600;28;19922;-66
2023/05/27 05:53:53;;;;;;;;;;;12.60;78.90;;;;;;4986002;28;19921;-66
2023/05/27 05:56:19;;;;;;;;;;;12.60;79.00;;;;;;4984778;28;19914;-67
2023/05/27 05:58:45;;;;;;;;;;;12.60;79.00;;;;;;4985841;28;19993;-67
2023/05/27 06:01:11;;;;;;;;;;;12.60;79.10;;;;;;4985619;28;20442;-66
2023/05/27 06:03:36;;;;;;;;;;;12.70;79.00;;;;;;4985506;28;19984;-66
2023/05/27 06:06:02;;;;;;;;;;;12.60;79.00;;;;;;4984443;28;19991;-67
2023/05/27 06:08:28;;;;;;;;;;;12.70;79.10;;;;;;4985835;28;19914;-66
2023/05/27 06:10:53;;;;;;;;;;;12.70;79.00;;;;;;4985645;28;20342;-66
2023/05/27 06:13:19;;;;;;;;;;;12.70;79.10;;;;;;4985562;28;19913;-66
2023/05/27 06:15:44;;;;;;;;;;;12.70;79.10;;;;;;4985714;28;19917;-66
2023/05/27 06:18:10;;;;;;;;;;;12.70;79.10;;;;;;4982969;28;19992;-67
2023/05/27 06:20:36;;;;;;;;;;;12.70;79.00;;;;;;4985647;28;20271;-67
2023/05/27 06:23:02;;;;;;;;;;;12.70;79.00;;;;;;4985745;28;19922;-66
2023/05/27 06:25:28;;;;;;;;;;;12.80;79.20;;;;;;5037622;28;20612;-67
2023/05/27 06:27:53;;;;;;;;;;;12.80;79.10;;;;;;5019115;28;19917;-66
2023/05/27 06:30:19;;;;;;;;;;;12.80;79.10;;;;;;4985520;28;19914;-67
2023/05/27 06:32:45;;;;;;;;;;;12.80;78.90;;;;;;4985689;28;19953;-67
2023/05/27 06:35:10;;;;;;;;;;;12.80;79.10;;;;;;4985649;28;19910;-66
2023/05/27 06:37:36;;;;;;;;;;;12.80;79.00;;;;;;4985921;28;19910;-67
2023/05/27 06:40:01;;;;;;;;;;;12.80;79.00;;;;;;4985967;28;20412;-67
2023/05/27 06:42:27;;;;;;;;;;;12.80;79.00;;;;;;4985745;28;20440;-66
2023/05/27 06:44:52;;;;;;;;;;;12.80;79.00;;;;;;4985835;28;19925;-66
2023/05/27 06:47:18;;;;;;;;;;;12.90;79.10;;;;;;4985899;28;20390;-66
2023/05/27 06:49:44;;;;;;;;;;;12.90;79.00;;;;;;4985905;28;19910;-67
2023/05/27 06:52:09;;;;;;;;;;;12.90;79.00;;;;;;5004365;28;20012;-66
2023/05/27 06:54:36;;;;;;;;;;;12.90;78.90;;;;;;5012919;28;19924;-67
2023/05/27 06:57:02;;;;;;;;;;;12.90;79.00;;;;;;4988891;28;19920;-66
2023/05/27 06:59:28;;;;;;;;;;;12.90;78.90;;;;;;4988614;28;19913;-66
2023/05/27 07:01:55;;;;;;;;;;;13.00;78.90;;;;;;4988450;28;20478;-66
2023/05/27 07:04:21;;;;;;;;;;;13.00;79.00;;;;;;4985428;28;19921;-66
2023/05/27 07:06:47;;;;;;;;;;;13.00;79.00;;;;;;4988334;28;19918;-67
2023/05/27 07:09:13;;;;;;;;;;;13.00;78.80;;;;;;4988726;28;20004;-66
2023/05/27 07:11:39;;;;;;;;;;;13.00;78.80;;;;;;4988962;28;19996;-66
2023/05/27 07:14:05;;;;;;;;;;;13.10;78.80;;;;;;4988722;28;20009;-67
2023/05/27 07:16:30;;;;;;;;;;;13.10;78.80;;;;;;4988950;28;19921;-66
2023/05/27 07:18:56;;;;;;;;;;;13.10;78.80;;;;;;4988473;28;19914;-67
2023/05/27 07:21:21;;;;;;;;;;;13.10;78.80;;;;;;4988820;28;19929;-67
2023/05/27 07:23:47;;;;;;;;;;;13.10;78.90;;;;;;4983657;28;19999;-66
2023/05/27 07:26:12;;;;;;;;;;;13.20;78.90;;;;;;5036961;28;19927;-66
2023/05/27 07:28:38;;;;;;;;;;;13.20;78.80;;;;;;4990785;28;20340;-67
2023/05/27 07:31:04;;;;;;;;;;;13.20;78.70;;;;;;4988709;28;19921;-67
2023/05/27 07:33:30;;;;;;;;;;;13.20;78.60;;;;;;4988460;28;19913;-66
2023/05/27 07:35:55;;;;;;;;;;;13.20;78.60;;;;;;4988704;28;19960;-66
2023/05/27 07:38:21;;;;;;;;;;;13.30;78.60;;;;;;4988800;28;20468;-66
2023/05/27 07:40:46;;;;;;;;;;;13.30;78.40;;;;;;4988633;28;19946;-66
2023/05/27 07:43:12;;;;;;;;;;;13.30;78.40;;;;;;4988525;28;19960;-67
2023/05/27 07:45:38;;;;;;;;;;;13.30;78.40;;;;;;4988275;28;19913;-67
2023/05/27 07:48:03;;;;;;;;;;;13.30;78.40;;;;;;4988594;28;19910;-66
2023/05/27 07:50:28;;;;;;;;;;;13.40;78.40;;;;;;5012691;28;20273;-67
2023/05/27 07:52:54;;;;;;;;;;;13.40;78.40;;;;;;5064425;28;19918;-66
2023/05/27 07:55:20;;;;;;;;;;;13.40;78.50;;;;;;5033024;28;19913;-66
2023/05/27 07:57:45;;;;;;;;;;;13.40;78.40;;;;;;5089985;28;20273;-66
2023/05/27 08:00:11;;;;;;;;;;;13.40;78.20;;;;;;4988113;28;19955;-67
2023/05/27 08:02:36;;;;;;;;;;;13.50;78.30;;;;;;4987419;28;19949;-66
2023/05/27 08:05:03;;;;;;;;;;;13.50;78.20;;;;;;4981845;28;19913;-66
2023/05/27 08:07:29;;;;;;;;;;;13.50;78.10;;;;;;4988257;28;20004;-66
2023/05/27 08:09:55;;;;;;;;;;;13.50;78.20;;;;;;4988092;28;19985;-66
2023/05/27 08:12:20;;;;;;;;;;;13.60;78.20;;;;;;4987932;28;19983;-66
2023/05/27 08:14:46;;;;;;;;;;;13.60;78.20;;;;;;4987936;28;20416;-66
2023/05/27 08:17:11;;;;;;;;;;;13.60;78.10;;;;;;4986938;28;19945;-66
2023/05/27 08:19:37;;;;;;;;;;;13.60;78.00;;;;;;4987837;28;19925;-66
2023/05/27 08:22:03;;;;;;;;;;;13.70;78.00;;;;;;4986421;28;19946;-66
2023/05/27 08:24:31;;;;;;;;;;;13.70;78.10;;;;;;4996435;28;20279;-66
2023/05/27 08:26:57;;;;;;;;;;;13.70;78.20;;;;;;5031008;28;19918;-66
2023/05/27 08:29:25;;;;;;;;;;;13.70;78.10;;;;;;4987735;28;19989;-66
2023/05/27 08:31:53;;;;;;;;;;;13.70;77.80;;;;;;4986292;28;19914;-66
2023/05/27 08:34:18;;;;;;;;;;;13.80;77.80;;;;;;4986292;28;19914;-66
2023/05/27 08:36:44;;;;;;;;;;;13.80;77.70;;;;;;4987976;28;19920;-66
2023/05/27 08:39:09;;;;;;;;;;;13.90;77.80;;;;;;4987843;28;20009;-66
2023/05/27 08:41:36;;;;;;;;;;;13.90;77.70;;;;;;4987642;28;19921;-66
2023/05/27 08:44:02;;;;;;;;;;;13.90;77.70;;;;;;4987525;28;20372;-67
2023/05/27 08:46:28;;;;;;;;;;;13.90;77.60;;;;;;4988001;28;19924;-66
2023/05/27 08:48:55;;;;;;;;;;;14.00;77.70;;;;;;4987484;28;19952;-66
2023/05/27 08:51:21;;;;;;;;;;;14.00;77.60;;;;;;4987554;28;19910;-66
2023/05/27 08:53:47;;;;;;;;;;;14.00;77.50;;;;;;4986256;28;20515;-67
2023/05/27 08:56:14;;;;;;;;;;;14.00;77.60;;;;;;5035740;28;20422;-67
2023/05/27 08:58:39;;;;;;;;;;;14.10;77.40;;;;;;4988271;28;19914;-66
2023/05/27 09:01:05;;;;;;;;;;;14.10;77.30;;;;;;4987651;28;19968;-66
2023/05/27 09:03:30;;;;;;;;;;;14.20;77.20;;;;;;4987096;28;19956;-66
2023/05/27 09:05:56;;;;;;;;;;;14.20;77.10;;;;;;4987119;28;20325;-66
2023/05/27 09:08:22;;;;;;;;;;;14.20;77.00;;;;;;4987465;28;19921;-66
2023/05/27 09:10:48;;;;;;;;;;;14.20;77.20;;;;;;4987230;28;19914;-66
2023/05/27 09:13:13;;;;;;;;;;;14.30;77.00;;;;;;4987024;28;19917;-66
2023/05/27 09:15:40;;;;;;;;;;;14.40;77.00;;;;;;4986882;28;19949;-66
2023/05/27 09:18:06;;;;;;;;;;;14.40;76.90;;;;;;4987181;28;19925;-66
2023/05/27 09:20:31;;;;;;;;;;;14.40;76.60;;;;;;4986445;28;19910;-66
2023/05/27 09:23:01;;;;;;;;;;;14.50;76.70;;;;;;4986925;28;19921;-67
2023/05/27 09:25:27;;;;;;;;;;;14.50;76.60;;;;;;4997415;28;20317;-66
2023/05/27 09:27:52;;;;;;;;;;;14.60;76.40;;;;;;4993046;28;19922;-66
2023/05/27 09:30:22;;;;;;;;;;;14.60;76.30;;;;;;5026894;28;19918;-67
2023/05/27 09:32:47;;;;;;;;;;;14.70;76.40;;;;;;5005412;28;19913;-68
2023/05/27 09:35:14;;;;;;;;;;;14.80;77.30;;;;;;4999794;28;19938;-67
2023/05/27 09:37:40;;;;;;;;;;;14.90;78.00;;;;;;5004306;28;19920;-68
2023/05/27 09:40:12;;;;;;;;;;;15.10;78.00;;;;;;5006318;28;19992;-68
2023/05/27 09:42:44;;;;;;;;;;;15.10;77.40;;;;;;4986363;28;19918;-67
2023/05/27 09:45:13;;;;;;;;;;;15.20;77.30;;;;;;4983449;28;19921;-68
2023/05/27 09:47:40;;;;;;;;;;;15.10;77.20;;;;;;4986309;28;19974;-68
2023/05/27 09:50:07;;;;;;;;;;;15.20;77.00;;;;;;4989896;28;19914;-67
2023/05/27 09:52:34;;;;;;;;;;;15.20;77.00;;;;;;5080112;28;19912;-68
2023/05/27 09:55:00;;;;;;;;;;;15.30;76.90;;;;;;4987972;28;20041;-68
2023/05/27 09:57:25;;;;;;;;;;;15.30;76.90;;;;;;4993096;28;20004;-68
2023/05/27 09:59:51;;;;;;;;;;;15.40;77.00;;;;;;4986188;28;19953;-68
2023/05/27 10:02:18;;;;;;;;;;;15.50;77.40;;;;;;4986274;28;19914;-68
2023/05/27 10:04:44;;;;;;;;;;;15.60;76.90;;;;;;4986329;28;19941;-68
2023/05/27 10:07:10;;;;;;;;;;;15.70;76.70;;;;;;4985193;28;19917;-68
2023/05/27 10:09:36;;;;;;;;;;;15.70;76.40;;;;;;4986409;28;19921;-68
2023/05/27 10:12:01;;;;;;;;;;;15.70;76.30;;;;;;4984593;28;19914;-68
2023/05/27 10:14:27;;;;;;;;;;;15.90;76.30;;;;;;4985697;28;19963;-68
2023/05/27 10:16:55;;;;;;;;;;;15.90;75.50;;;;;;4986019;28;20344;-68
2023/05/27 10:19:21;;;;;;;;;;;16.00;75.20;;;;;;4985677;28;20533;-67
2023/05/27 10:21:46;;;;;;;;;;;16.10;75.40;;;;;;4984418;28;19922;-67
2023/05/27 10:24:12;;;;;;;;;;;16.20;74.80;;;;;;4985166;28;19956;-68
2023/05/27 10:26:42;;;;;;;;;;;16.30;75.20;;;;;;4985668;28;19918;-68
2023/05/27 10:29:09;;;;;;;;;;;16.30;75.50;;;;;;4988093;28;20004;-68
2023/05/27 10:31:36;;;;;;;;;;;16.40;75.40;;;;;;5039778;28;20351;-68
2023/05/27 10:34:03;;;;;;;;;;;16.50;75.50;;;;;;4989254;28;19913;-68
2023/05/27 10:36:35;;;;;;;;;;;16.60;75.40;;;;;;4989163;28;20362;-68
2023/05/27 10:39:05;;;;;;;;;;;16.60;75.10;;;;;;4990598;28;19952;-68
2023/05/27 10:41:40;;;;;;;;;;;16.70;75.10;;;;;;4988919;28;19914;-68
2023/05/27 10:44:05;;;;;;;;;;;16.80;75.80;;;;;;4988931;28;19918;-68
2023/05/27 10:46:41;;;;;;;;;;;17.00;75.10;;;;;;4989114;28;19921;-68
2023/05/27 10:49:25;;;;;;;;;;;17.00;75.40;;;;;;4988648;28;19914;-68
2023/05/27 10:51:51;;;;;;;;;;;17.20;74.80;;;;;;4986777;28;19914;-68
2023/05/27 10:54:17;;;;;;;;;;;17.30;75.30;;;;;;4986918;28;19910;-68
2023/05/27 10:56:50;;;;;;;;;;;17.40;74.80;;;;;;5005359;28;19921;-68
2023/05/27 10:59:21;;;;;;;;;;;17.50;74.60;;;;;;4989948;28;20380;-68
2023/05/27 11:01:50;;;;;;;;;;;17.80;74.10;;;;;;5009113;28;20269;-68
2023/05/27 11:04:16;;;;;;;;;;;17.90;74.30;;;;;;4998939;28;19936;-68
2023/05/27 11:06:41;;;;;;;;;;;17.90;74.50;;;;;;4988585;28;20367;-68
2023/05/27 11:09:08;;;;;;;;;;;18.00;74.70;;;;;;4988726;28;19910;-68
2023/05/27 11:11:33;;;;;;;;;;;18.10;74.50;;;;;;4987588;28;19997;-68
2023/05/27 11:13:59;;;;;;;;;;;18.20;74.00;;;;;;4988590;28;20025;-68
2023/05/27 11:16:25;;;;;;;;;;;18.20;74.40;;;;;;4987770;28;20377;-68
2023/05/27 11:18:51;;;;;;;;;;;18.40;74.70;;;;;;4988745;28;20696;-68
2023/05/27 11:21:16;;;;;;;;;;;18.50;74.60;;;;;;4988604;28;19918;-66
2023/05/27 11:23:43;;;;;;;;;;;18.60;74.40;;;;;;4988446;28;19932;-66
2023/05/27 11:26:13;;;;;;;;;;;18.70;74.50;;;;;;4988471;28;20012;-66
2023/05/27 11:28:44;;;;;;;;;;;18.90;74.40;;;;;;4988672;28;20064;-66
2023/05/27 11:31:10;;;;;;;;;;;19.00;74.00;;;;;;5026404;28;19914;-66
2023/05/27 11:33:40;;;;;;;;;;;19.10;74.40;;;;;;5007528;28;20446;-66
2023/05/27 11:36:06;;;;;;;;;;;19.10;74.20;;;;;;4988723;28;19921;-66
2023/05/27 11:38:38;;;;;;;;;;;19.20;74.40;;;;;;4987507;28;19914;-66
2023/05/27 11:41:07;;;;;;;;;;;19.30;74.80;;;;;;4988851;28;19910;-66
2023/05/27 11:43:33;;;;;;;;;;;19.40;74.60;;;;;;4988368;28;19914;-66
2023/05/27 11:46:04;;;;;;;;;;;19.40;75.50;;;;;;4988410;28;19955;-66
2023/05/27 11:48:30;;;;;;;;;;;19.40;75.50;;;;;;4988585;28;19918;-66
2023/05/27 11:50:55;;;;;;;;;;;19.50;75.10;;;;;;4988357;28;20432;-66
2023/05/27 11:53:21;;;;;;;;;;;19.60;74.90;;;;;;4988060;28;19914;-66
2023/05/27 11:55:46;;;;;;;;;;;19.70;74.70;;;;;;5018247;28;19915;-66
2023/05/27 11:58:12;;;;;;;;;;;19.70;74.70;;;;;;5012369;28;19910;-66
2023/05/27 12:00:37;;;;;;;;;;;19.80;73.90;;;;;;5090188;28;19923;-66
2023/05/27 12:03:03;;;;;;;;;;;19.90;73.70;;;;;;5034530;28;19918;-66
2023/05/27 12:05:28;;;;;;;;;;;19.90;73.70;;;;;;4986785;28;20335;-66
2023/05/27 12:07:54;;;;;;;;;;;20.00;74.00;;;;;;4986868;28;20372;-66
2023/05/27 12:10:19;;;;;;;;;;;20.10;73.90;;;;;;4987979;28;19953;-66
2023/05/27 12:12:45;;;;;;;;;;;20.10;74.30;;;;;;4987976;28;19934;-66
2023/05/27 12:15:10;;;;;;;;;;;20.20;74.50;;;;;;4987931;28;19910;-66
2023/05/27 12:17:36;;;;;;;;;;;20.30;73.20;;;;;;4988150;28;19941;-66
2023/05/27 12:20:01;;;;;;;;;;;20.40;73.10;;;;;;4987773;28;20021;-66
2023/05/27 12:22:27;;;;;;;;;;;20.50;73.80;;;;;;4986564;28;19917;-66
2023/05/27 12:24:52;;;;;;;;;;;20.60;74.00;;;;;;4987000;28;20622;-66
2023/05/27 12:27:19;;;;;;;;;;;20.60;73.80;;;;;;4986889;28;19925;-66
2023/05/27 12:29:46;;;;;;;;;;;20.70;73.70;;;;;;5006535;28;19912;-66
2023/05/27 12:32:12;;;;;;;;;;;20.80;73.40;;;;;;5025895;28;19910;-66
2023/05/27 12:34:37;;;;;;;;;;;20.90;72.80;;;;;;4986025;28;19917;-66
2023/05/27 12:37:03;;;;;;;;;;;21.00;73.60;;;;;;4986135;28;19917;-66
2023/05/27 12:39:28;;;;;;;;;;;21.10;73.10;;;;;;4983973;28;19910;-66
2023/05/27 12:41:54;;;;;;;;;;;21.10;73.00;;;;;;4986259;28;19914;-66
2023/05/27 12:44:19;;;;;;;;;;;21.20;72.40;;;;;;4986673;28;19914;-67
2023/05/27 12:46:45;;;;;;;;;;;21.30;70.90;;;;;;4986843;28;19918;-66
2023/05/27 12:49:10;;;;;;;;;;;21.40;72.20;;;;;;4984727;28;19910;-66
2023/05/27 12:51:37;;;;;;;;;;;21.50;71.80;;;;;;4986968;28;19979;-66
2023/05/27 12:54:03;;;;;;;;;;;21.50;71.80;;;;;;4984657;28;19918;-67
2023/05/27 12:56:28;;;;;;;;;;;21.50;71.90;;;;;;5039175;28;19915;-66
2023/05/27 12:58:54;;;;;;;;;;;21.50;72.50;;;;;;4986347;28;19917;-66
2023/05/27 13:01:19;;;;;;;;;;;21.60;72.70;;;;;;4987150;28;19941;-66
2023/05/27 13:03:45;;;;;;;;;;;21.70;73.10;;;;;;4986870;28;20402;-67
2023/05/27 13:06:10;;;;;;;;;;;21.70;73.10;;;;;;4987232;28;19918;-66
2023/05/27 13:08:36;;;;;;;;;;;21.80;73.40;;;;;;4987199;28;19957;-66
2023/05/27 13:11:01;;;;;;;;;;;21.90;73.20;;;;;;4987429;28;19910;-66
2023/05/27 13:13:27;;;;;;;;;;;21.90;73.50;;;;;;4986895;28;19963;-66
2023/05/27 13:15:53;;;;;;;;;;;21.90;73.50;;;;;;4987209;28;19922;-67
2023/05/27 13:18:18;;;;;;;;;;;22.00;71.50;;;;;;4987144;28;19929;-67
2023/05/27 13:20:44;;;;;;;;;;;22.00;73.20;;;;;;4986977;28;20425;-66
2023/05/27 13:23:10;;;;;;;;;;;22.10;72.60;;;;;;4986670;28;20013;-66
2023/05/27 13:25:35;;;;;;;;;;;22.10;72.90;;;;;;4986609;28;19914;-66
2023/05/27 13:28:03;;;;;;;;;;;22.20;72.70;;;;;;4986310;28;21544;-66
2023/05/27 13:30:29;;;;;;;;;;;22.30;72.40;;;;;;5028709;28;19943;-66
2023/05/27 13:32:55;;;;;;;;;;;22.30;72.70;;;;;;5005971;28;19917;-66
2023/05/27 13:35:21;;;;;;;;;;;22.30;73.00;;;;;;4986740;28;20376;-66
2023/05/27 13:37:47;;;;;;;;;;;22.40;73.90;;;;;;4986850;28;19941;-67
2023/05/27 13:40:12;;;;;;;;;;;22.40;72.50;;;;;;4986821;28;19983;-66
2023/05/27 13:42:38;;;;;;;;;;;22.50;72.90;;;;;;4986607;28;19914;-66
2023/05/27 13:45:05;;;;;;;;;;;22.60;72.30;;;;;;4986632;28;20008;-66
2023/05/27 13:47:30;;;;;;;;;;;22.60;72.50;;;;;;4986885;28;19921;-66
2023/05/27 13:49:56;;;;;;;;;;;22.70;72.60;;;;;;4986297;28;20416;-66
2023/05/27 13:52:21;;;;;;;;;;;22.70;72.00;;;;;;4986436;28;20366;-66
2023/05/27 13:54:47;;;;;;;;;;;22.80;71.80;;;;;;4995304;28;19919;-66
2023/05/27 13:57:12;;;;;;;;;;;22.80;72.40;;;;;;5027001;28;20391;-67
2023/05/27 13:59:38;;;;;;;;;;;22.90;71.50;;;;;;4985958;28;19914;-67
2023/05/27 14:02:05;;;;;;;;;;;22.90;72.00;;;;;;5018655;28;19925;-67
2023/05/27 14:04:31;;;;;;;;;;;23.00;71.50;;;;;;4986647;28;20347;-67
2023/05/27 14:06:57;;;;;;;;;;;23.10;71.40;;;;;;4981725;28;20489;-67
2023/05/27 14:09:22;;;;;;;;;;;23.10;71.50;;;;;;4984503;28;19921;-67
2023/05/27 14:11:48;;;;;;;;;;;23.20;70.50;;;;;;4986278;28;19914;-67